sensor_id;sensor_type;location;lat;lon;timestamp;pressure;altitude;pressure_sealevel;temperature;humidity
56414;BME280;42318;48.452;19.526;2022-12-24T00:05:21;97606.28;;;19.05;51.91
56414;BME280;42318;48.452;19.526;2022-12-24T00:12:52;97590.81;;;19.05;51.55
56414;BME280;42318;48.452;19.526;2022-12-24T00:20:23;97577.22;;;19.05;51.91
56414;BME280;42318;48.452;19.526;2022-12-24T00:27:54;97584.28;;;19.06;52.54
56414;BME280;42318;48.452;19.526;2022-12-24T00:35:25;97564.19;;;19.07;51.93
56414;BME280;42318;48.452;19.526;2022-12-24T00:42:56;97569.09;;;19.05;51.96
56414;BME280;42318;48.452;19.526;2022-12-24T00:50:27;97563.66;;;19.05;52.13
56414;BME280;42318;48.452;19.526;2022-12-24T00:57:57;97572.63;;;19.06;51.99
56414;BME280;42318;48.452;19.526;2022-12-24T01:05:28;97576.97;;;19.07;52.04
56414;BME280;42318;48.452;19.526;2022-12-24T01:13:02;97589.72;;;19.06;51.65
56414;BME280;42318;48.452;19.526;2022-12-24T01:20:33;97580.50;;;19.07;51.67
56414;BME280;42318;48.452;19.526;2022-12-24T01:28:04;97555.00;;;19.08;51.84
56414;BME280;42318;48.452;19.526;2022-12-24T01:35:39;97556.91;;;19.08;51.60
56414;BME280;42318;48.452;19.526;2022-12-24T01:43:18;97545.19;;;19.07;51.81
56414;BME280;42318;48.452;19.526;2022-12-24T01:58:49;97543.06;;;19.09;51.56
56414;BME280;42318;48.452;19.526;2022-12-24T02:06:22;97541.16;;;19.10;51.63
56414;BME280;42318;48.452;19.526;2022-12-24T02:13:58;97549.31;;;19.10;51.75
56414;BME280;42318;48.452;19.526;2022-12-24T02:22:12;97543.06;;;19.09;51.55
56414;BME280;42318;48.452;19.526;2022-12-24T02:37:27;97562.56;;;19.06;51.57
56414;BME280;42318;48.452;19.526;2022-12-24T02:45:21;97567.50;;;19.09;51.81
56414;BME280;42318;48.452;19.526;2022-12-24T02:52:52;97568.56;;;19.08;51.79
56414;BME280;42318;48.452;19.526;2022-12-24T03:00:24;97566.38;;;19.05;51.73
56414;BME280;42318;48.452;19.526;2022-12-24T03:08:01;97573.44;;;19.06;51.57
56414;BME280;42318;48.452;19.526;2022-12-24T03:15:34;97575.34;;;19.06;51.70
56414;BME280;42318;48.452;19.526;2022-12-24T03:23:07;97555.25;;;19.07;51.55
56414;BME280;42318;48.452;19.526;2022-12-24T03:30:40;97556.91;;;19.08;51.71
56414;BME280;42318;48.452;19.526;2022-12-24T03:38:11;97515.59;;;19.06;51.56
56414;BME280;42318;48.452;19.526;2022-12-24T03:45:42;97545.19;;;19.07;51.70
56414;BME280;42318;48.452;19.526;2022-12-24T03:53:13;97546.03;;;19.08;51.67
56414;BME280;42318;48.452;19.526;2022-12-24T04:00:44;97554.19;;;19.08;51.56
56414;BME280;42318;48.452;19.526;2022-12-24T04:08:15;97537.31;;;19.06;51.47
56414;BME280;42318;48.452;19.526;2022-12-24T04:15:56;97550.63;;;19.07;51.47
56414;BME280;42318;48.452;19.526;2022-12-24T04:23:29;97551.47;;;19.08;51.63
56414;BME280;42318;48.452;19.526;2022-12-24T04:31:03;97541.66;;;19.07;51.74
56414;BME280;42318;48.452;19.526;2022-12-24T04:38:34;97534.88;;;19.04;51.40
56414;BME280;42318;48.452;19.526;2022-12-24T04:46:07;97547.38;;;19.05;51.51
56414;BME280;42318;48.452;19.526;2022-12-24T04:53:38;97555.50;;;19.05;51.72
56414;BME280;42318;48.452;19.526;2022-12-24T05:01:16;97549.28;;;19.05;51.49
56414;BME280;42318;48.452;19.526;2022-12-24T05:08:47;97546.28;;;19.06;51.61
56414;BME280;42318;48.452;19.526;2022-12-24T05:16:21;97546.84;;;19.08;51.38
56414;BME280;42318;48.452;19.526;2022-12-24T05:23:52;97555.50;;;19.05;51.58
56414;BME280;42318;48.452;19.526;2022-12-24T05:31:42;97551.72;;;19.06;51.58
56414;BME280;42318;48.452;19.526;2022-12-24T05:39:15;97550.63;;;19.07;51.67
56414;BME280;42318;48.452;19.526;2022-12-24T05:46:46;97527.28;;;19.06;51.57
56414;BME280;42318;48.452;19.526;2022-12-24T05:54:17;97531.91;;;19.06;51.69
56414;BME280;42318;48.452;19.526;2022-12-24T06:01:48;97553.63;;;19.06;51.57
56414;BME280;42318;48.452;19.526;2022-12-24T06:09:18;97548.47;;;19.04;51.55
56414;BME280;42318;48.452;19.526;2022-12-24T06:16:50;97559.03;;;19.06;51.59
56414;BME280;42318;48.452;19.526;2022-12-24T06:24:21;97558.22;;;19.05;51.62
56414;BME280;42318;48.452;19.526;2022-12-24T06:31:51;97573.44;;;19.06;51.38
56414;BME280;42318;48.452;19.526;2022-12-24T06:39:22;97573.72;;;19.05;51.57
56414;BME280;42318;48.452;19.526;2022-12-24T06:46:53;97574.53;;;19.05;51.73
56414;BME280;42318;48.452;19.526;2022-12-24T06:54:24;97585.09;;;19.07;51.77
56414;BME280;42318;48.452;19.526;2022-12-24T07:01:55;97600.03;;;19.04;51.59
56414;BME280;42318;48.452;19.526;2022-12-24T07:09:26;97603.56;;;19.05;51.44
56414;BME280;42318;48.452;19.526;2022-12-24T07:16:56;97611.72;;;19.05;51.62
56414;BME280;42318;48.452;19.526;2022-12-24T07:24:27;97605.22;;;19.11;51.33
56414;BME280;42318;48.452;19.526;2022-12-24T07:31:58;97638.34;;;19.13;51.31
56414;BME280;42318;48.452;19.526;2022-12-24T07:39:29;97645.69;;;19.12;51.60
56414;BME280;42318;48.452;19.526;2022-12-24T07:47:00;97646.78;;;19.22;51.27
56414;BME280;42318;48.452;19.526;2022-12-24T07:54:30;97657.09;;;19.50;50.76
56414;BME280;42318;48.452;19.526;2022-12-24T08:02:01;97657.09;;;19.45;50.53
56414;BME280;42318;48.452;19.526;2022-12-24T08:09:33;97678.84;;;19.45;50.47
56414;BME280;42318;48.452;19.526;2022-12-24T08:17:04;97690.25;;;19.47;50.45
56414;BME280;42318;48.452;19.526;2022-12-24T08:24:35;97692.69;;;19.38;50.88
56414;BME280;42318;48.452;19.526;2022-12-24T08:32:07;97699.19;;;19.32;50.92
56414;BME280;42318;48.452;19.526;2022-12-24T08:39:37;97720.38;;;19.30;51.11
56414;BME280;42318;48.452;19.526;2022-12-24T08:47:08;97714.69;;;19.37;51.07
56414;BME280;42318;48.452;19.526;2022-12-24T08:54:39;97726.38;;;19.48;50.72
56414;BME280;42318;48.452;19.526;2022-12-24T09:02:10;97754.44;;;19.58;50.17
56414;BME280;42318;48.452;19.526;2022-12-24T09:09:40;97752.78;;;19.52;50.40
56414;BME280;42318;48.452;19.526;2022-12-24T09:17:11;97742.94;;;19.46;50.62
56414;BME280;42318;48.452;19.526;2022-12-24T09:24:42;97743.50;;;19.43;50.94
56414;BME280;42318;48.452;19.526;2022-12-24T09:32:13;97751.66;;;19.48;50.96
56414;BME280;42318;48.452;19.526;2022-12-24T09:39:44;97754.44;;;19.53;50.65
56414;BME280;42318;48.452;19.526;2022-12-24T09:47:28;97765.31;;;19.63;50.72
56414;BME280;42318;48.452;19.526;2022-12-24T09:55:07;97757.16;;;19.68;50.43
56414;BME280;42318;48.452;19.526;2022-12-24T10:02:45;97759.59;;;19.70;50.40
56414;BME280;42318;48.452;19.526;2022-12-24T10:33:44;97780.00;;;20.13;50.00
56414;BME280;42318;48.452;19.526;2022-12-24T10:41:16;97782.16;;;20.16;49.85
56414;BME280;42318;48.452;19.526;2022-12-24T10:49:02;97784.63;;;20.13;49.77
56414;BME280;42318;48.452;19.526;2022-12-24T10:56:43;97797.41;;;20.07;49.88
56414;BME280;42318;48.452;19.526;2022-12-24T11:04:21;97792.50;;;19.99;50.09
56414;BME280;42318;48.452;19.526;2022-12-24T11:11:54;97802.81;;;19.92;50.20
56414;BME280;42318;48.452;19.526;2022-12-24T11:19:34;97786.25;;;19.83;50.73
56414;BME280;42318;48.452;19.526;2022-12-24T11:34:52;97808.53;;;19.70;50.72
56414;BME280;42318;48.452;19.526;2022-12-24T11:42:34;97830.81;;;19.67;50.95
56414;BME280;42318;48.452;19.526;2022-12-24T11:50:28;97839.22;;;19.65;51.13
56414;BME280;42318;48.452;19.526;2022-12-24T12:05:35;97844.38;;;19.67;50.93
56414;BME280;42318;48.452;19.526;2022-12-24T12:13:17;97860.44;;;19.73;50.94
56414;BME280;42318;48.452;19.526;2022-12-24T12:20:57;97861.00;;;19.81;50.76
56414;BME280;42318;48.452;19.526;2022-12-24T12:36:31;97882.72;;;19.75;50.76
56414;BME280;42318;48.452;19.526;2022-12-24T13:00:06;97905.00;;;19.62;51.31
56414;BME280;42318;48.452;19.526;2022-12-24T13:07:50;97915.31;;;19.60;50.97
56414;BME280;42318;48.452;19.526;2022-12-24T13:23:28;97944.09;;;19.56;51.33
56414;BME280;42318;48.452;19.526;2022-12-24T13:38:50;97958.69;;;19.50;51.47
56414;BME280;42318;48.452;19.526;2022-12-24T13:46:47;97977.97;;;19.49;51.60
56414;BME280;42318;48.452;19.526;2022-12-24T13:54:22;97979.31;;;19.46;51.65
56414;BME280;42318;48.452;19.526;2022-12-24T14:01:55;97992.09;;;19.45;51.66
56414;BME280;42318;48.452;19.526;2022-12-24T14:09:27;97992.34;;;19.44;51.64
56414;BME280;42318;48.452;19.526;2022-12-24T14:17:09;98007.28;;;19.41;51.49
56414;BME280;42318;48.452;19.526;2022-12-24T14:24:48;98005.38;;;19.42;51.56
56414;BME280;42318;48.452;19.526;2022-12-24T14:32:20;98006.47;;;19.41;51.69
56414;BME280;42318;48.452;19.526;2022-12-24T14:39:51;98010.56;;;19.43;51.63
56414;BME280;42318;48.452;19.526;2022-12-24T14:47:33;98018.19;;;19.46;51.56
56414;BME280;42318;48.452;19.526;2022-12-24T14:55:27;98025.78;;;19.44;51.78
56414;BME280;42318;48.452;19.526;2022-12-24T15:02:58;98035.56;;;19.45;52.43
56414;BME280;42318;48.452;19.526;2022-12-24T15:10:34;98040.22;;;19.50;53.65
56414;BME280;42318;48.452;19.526;2022-12-24T15:18:14;98052.28;;;19.64;54.32
56414;BME280;42318;48.452;19.526;2022-12-24T15:25:46;98070.03;;;19.77;54.50
56414;BME280;42318;48.452;19.526;2022-12-24T15:33:17;98082.28;;;19.80;54.99
56414;BME280;42318;48.452;19.526;2022-12-24T15:40:48;98086.34;;;19.82;56.16
56414;BME280;42318;48.452;19.526;2022-12-24T15:48:24;98103.81;;;19.91;57.80
56414;BME280;42318;48.452;19.526;2022-12-24T16:03:30;98089.94;;;19.93;57.95
56414;BME280;42318;48.452;19.526;2022-12-24T16:26:14;98120.38;;;19.90;58.72
56414;BME280;42318;48.452;19.526;2022-12-24T16:33:45;98139.41;;;19.90;58.91
56414;BME280;42318;48.452;19.526;2022-12-24T16:41:16;98134.25;;;19.88;57.92
56414;BME280;42318;48.452;19.526;2022-12-24T16:48:47;98142.44;;;19.93;58.05
56414;BME280;42318;48.452;19.526;2022-12-24T16:56:18;98149.28;;;19.96;58.39
56414;BME280;42318;48.452;19.526;2022-12-24T17:03:49;98147.66;;;20.00;59.28
56414;BME280;42318;48.452;19.526;2022-12-24T17:11:22;98147.16;;;20.08;59.25
56414;BME280;42318;48.452;19.526;2022-12-24T17:18:53;98159.69;;;20.14;59.32
56414;BME280;42318;48.452;19.526;2022-12-24T17:26:24;98169.75;;;20.14;58.90
56414;BME280;42318;48.452;19.526;2022-12-24T17:33:55;98176.31;;;20.18;58.96
56414;BME280;42318;48.452;19.526;2022-12-24T17:41:26;98187.44;;;20.16;58.85
56414;BME280;42318;48.452;19.526;2022-12-24T17:48:57;98185.84;;;20.25;59.08
56414;BME280;42318;48.452;19.526;2022-12-24T17:56:28;98208.72;;;20.24;58.08
56414;BME280;42318;48.452;19.526;2022-12-24T18:04:01;98226.41;;;20.27;57.71
56414;BME280;42318;48.452;19.526;2022-12-24T18:11:34;98225.84;;;20.25;57.03
56414;BME280;42318;48.452;19.526;2022-12-24T18:19:06;98232.38;;;20.24;56.62
56414;BME280;42318;48.452;19.526;2022-12-24T18:26:38;98235.34;;;20.22;56.39
56414;BME280;42318;48.452;19.526;2022-12-24T18:34:12;98255.50;;;20.26;56.20
56414;BME280;42318;48.452;19.526;2022-12-24T18:41:43;98266.41;;;20.31;56.18
56414;BME280;42318;48.452;19.526;2022-12-24T18:49:14;98264.81;;;20.35;56.28
56414;BME280;42318;48.452;19.526;2022-12-24T18:56:45;98289.38;;;20.41;55.91
56414;BME280;42318;48.452;19.526;2022-12-24T19:04:16;98283.69;;;20.42;56.10
56414;BME280;42318;48.452;19.526;2022-12-24T19:11:47;98304.69;;;20.52;56.13
56414;BME280;42318;48.452;19.526;2022-12-24T19:19:18;98313.97;;;20.56;56.14
56414;BME280;42318;48.452;19.526;2022-12-24T19:26:53;98313.19;;;20.60;55.85
56414;BME280;42318;48.452;19.526;2022-12-24T19:34:24;98324.88;;;20.61;56.02
56414;BME280;42318;48.452;19.526;2022-12-24T19:41:55;98335.78;;;20.61;56.20
56414;BME280;42318;48.452;19.526;2022-12-24T19:49:25;98362.44;;;20.59;56.29
56414;BME280;42318;48.452;19.526;2022-12-24T19:56:56;98350.47;;;20.60;56.53
56414;BME280;42318;48.452;19.526;2022-12-24T20:04:27;98349.66;;;20.59;56.32
56414;BME280;42318;48.452;19.526;2022-12-24T20:11:59;98370.09;;;20.62;56.06
56414;BME280;42318;48.452;19.526;2022-12-24T20:19:30;98382.06;;;20.61;55.66
56414;BME280;42318;48.452;19.526;2022-12-24T20:27:01;98401.63;;;20.58;55.98
56414;BME280;42318;48.452;19.526;2022-12-24T20:34:32;98399.16;;;20.56;55.33
56414;BME280;42318;48.452;19.526;2022-12-24T20:42:03;98414.41;;;20.57;55.26
56414;BME280;42318;48.452;19.526;2022-12-24T20:49:34;98410.34;;;20.60;55.24
56414;BME280;42318;48.452;19.526;2022-12-24T20:57:05;98415.53;;;20.61;54.79
56414;BME280;42318;48.452;19.526;2022-12-24T21:04:36;98417.69;;;20.59;54.71
56414;BME280;42318;48.452;19.526;2022-12-24T21:12:10;98435.16;;;20.63;55.23
56414;BME280;42318;48.452;19.526;2022-12-24T21:20:00;98450.69;;;20.68;55.92
56414;BME280;42318;48.452;19.526;2022-12-24T21:27:30;98470.06;;;20.72;55.50
56414;BME280;42318;48.452;19.526;2022-12-24T21:35:02;98482.06;;;20.76;55.87
56414;BME280;42318;48.452;19.526;2022-12-24T21:42:34;98487.00;;;20.79;55.92
56414;BME280;42318;48.452;19.526;2022-12-24T21:50:05;98472.06;;;20.81;55.65
56414;BME280;42318;48.452;19.526;2022-12-24T21:57:54;98470.38;;;20.80;55.40
56414;BME280;42318;48.452;19.526;2022-12-24T22:05:25;98461.16;;;20.81;55.30
56414;BME280;42318;48.452;19.526;2022-12-24T22:12:58;98443.16;;;20.80;55.14
56414;BME280;42318;48.452;19.526;2022-12-24T22:20:29;98446.47;;;20.82;54.59
56414;BME280;42318;48.452;19.526;2022-12-24T22:28:00;98451.91;;;20.82;54.70
56414;BME280;42318;48.452;19.526;2022-12-24T22:35:31;98465.53;;;20.82;54.66
56414;BME280;42318;48.452;19.526;2022-12-24T22:43:03;98484.59;;;20.82;54.14
56414;BME280;42318;48.452;19.526;2022-12-24T22:50:33;98506.13;;;20.84;54.23
56414;BME280;42318;48.452;19.526;2022-12-24T22:58:04;98487.88;;;20.84;53.86
56414;BME280;42318;48.452;19.526;2022-12-24T23:05:36;98496.88;;;20.85;53.92
56414;BME280;42318;48.452;19.526;2022-12-24T23:13:07;98523.28;;;20.84;53.52
56414;BME280;42318;48.452;19.526;2022-12-24T23:20:56;98545.06;;;20.84;53.43
56414;BME280;42318;48.452;19.526;2022-12-24T23:28:27;98543.16;;;20.85;53.29
56414;BME280;42318;48.452;19.526;2022-12-24T23:35:58;98540.75;;;20.88;53.10
56414;BME280;42318;48.452;19.526;2022-12-24T23:43:29;98552.41;;;20.84;53.12
56414;BME280;42318;48.452;19.526;2022-12-24T23:51:13;98558.34;;;20.81;53.30
56414;BME280;42318;48.452;19.526;2022-12-24T23:58:45;98552.59;;;20.77;53.21
